createdAt,value
2023-05-21T00:03:33.004Z,24.55
2023-05-21T00:06:01.704Z,23.05
2023-05-21T00:08:28.735Z,25.15
2023-05-21T00:10:55.721Z,25.02
2023-05-21T00:13:22.622Z,24.08
2023-05-21T00:15:49.560Z,22.77
2023-05-21T00:18:16.745Z,27.67
2023-05-21T00:20:43.676Z,29.42
2023-05-21T00:23:10.500Z,27.73
2023-05-21T00:25:37.595Z,30.60
2023-05-21T00:28:05.673Z,27.95
2023-05-21T00:30:32.814Z,31.42
2023-05-21T00:33:02.754Z,29.92
2023-05-21T00:35:30.195Z,30.25
2023-05-21T00:37:57.482Z,32.15
2023-05-21T00:40:24.530Z,32.65
2023-05-21T00:42:51.420Z,29.38
2023-05-21T00:45:18.488Z,31.98
2023-05-21T00:47:45.978Z,32.15
2023-05-21T00:50:15.359Z,33.97
2023-05-21T00:52:45.705Z,33.95
2023-05-21T00:55:13.031Z,35.78
2023-05-21T00:57:40.571Z,39.28
2023-05-21T01:00:09.193Z,33.58
2023-05-21T01:02:38.145Z,29.65
2023-05-21T01:05:06.850Z,31.75
2023-05-21T01:07:39.959Z,29.65
2023-05-21T01:10:09.902Z,31.95
2023-05-21T01:12:40.069Z,21.17
2023-05-21T01:15:07.641Z,24.45
2023-05-21T01:17:37.291Z,26.92
2023-05-21T01:20:14.583Z,30.17
2023-05-21T01:22:51.598Z,27.17
2023-05-21T01:25:18.393Z,30.38
2023-05-21T01:27:45.266Z,30.35
2023-05-21T01:30:13.512Z,36.97
2023-05-21T01:33:05.486Z,41.40
2023-05-21T01:39:22.536Z,39.55
2023-05-21T01:41:52.446Z,41.97
2023-05-21T01:44:19.663Z,37.85
2023-05-21T01:46:46.744Z,31.15
2023-05-21T01:49:14.843Z,30.20
2023-05-21T01:51:41.841Z,29.60
2023-05-21T01:54:09.446Z,27.10
2023-05-21T01:56:37.019Z,32.40
2023-05-21T01:59:05.810Z,37.83
2023-05-21T02:01:32.869Z,38.42
2023-05-21T02:03:59.842Z,39.70
2023-05-21T02:06:26.869Z,37.60
2023-05-21T02:08:53.902Z,38.55
2023-05-21T02:11:20.857Z,36.08
2023-05-21T02:13:47.800Z,38.35
2023-05-21T02:16:16.050Z,35.33
2023-05-21T02:18:46.492Z,37.88
2023-05-21T02:21:13.594Z,37.17
2023-05-21T02:23:42.617Z,32.78
2023-05-21T02:26:09.399Z,36.80
2023-05-21T02:28:36.479Z,34.75
2023-05-21T02:31:03.686Z,33.95
2023-05-21T02:33:31.677Z,35.60
2023-05-21T02:35:59.011Z,31.95
2023-05-21T02:38:25.922Z,30.52
2023-05-21T02:40:53.159Z,33.28
2023-05-21T02:43:20.373Z,32.90
2023-05-21T02:45:47.701Z,30.65
2023-05-21T02:48:14.938Z,31.80
2023-05-21T02:50:42.762Z,30.02
2023-05-21T02:53:09.968Z,30.65
2023-05-21T02:55:37.402Z,31.33
2023-05-21T02:58:05.051Z,29.40
2023-05-21T03:00:31.945Z,25.23
2023-05-21T03:03:02.985Z,27.30
2023-05-21T03:05:29.991Z,27.63
2023-05-21T03:07:59.308Z,28.23
2023-05-21T03:10:26.310Z,29.30
2023-05-21T03:12:54.856Z,28.17
2023-05-21T03:15:24.309Z,23.02
2023-05-21T03:17:54.220Z,26.25
2023-05-21T03:20:21.235Z,21.20
2023-05-21T03:22:48.341Z,21.65
2023-05-21T03:25:15.478Z,24.63
2023-05-21T03:27:42.419Z,23.90
2023-05-21T03:30:27.665Z,22.75
2023-05-21T03:33:20.785Z,22.90
2023-05-21T03:35:47.723Z,30.20
2023-05-21T03:38:14.978Z,29.23
2023-05-21T03:40:41.928Z,22.00
2023-05-21T03:43:08.932Z,20.95
2023-05-21T03:45:37.020Z,23.45
2023-05-21T03:48:24.320Z,22.25
2023-05-21T03:50:51.554Z,21.33
2023-05-21T03:53:19.817Z,27.67
2023-05-21T03:55:54.811Z,31.75
2023-05-21T03:58:24.173Z,32.83
2023-05-21T04:00:51.349Z,33.97
2023-05-21T04:03:18.349Z,33.63
2023-05-21T04:05:45.442Z,35.75
2023-05-21T04:08:12.660Z,32.03
2023-05-21T04:10:39.535Z,27.15
2023-05-21T04:13:06.560Z,29.63
2023-05-21T04:15:35.697Z,29.92
2023-05-21T04:18:02.918Z,31.85
2023-05-21T04:20:29.871Z,31.67
2023-05-21T04:22:56.884Z,37.13
2023-05-21T04:25:23.776Z,30.63
2023-05-21T04:27:50.883Z,32.92
2023-05-21T04:30:20.049Z,29.88
2023-05-21T04:32:48.258Z,34.00
2023-05-21T04:35:18.155Z,32.65
2023-05-21T04:37:46.094Z,32.63
2023-05-21T04:40:18.396Z,37.88
2023-05-21T04:42:46.750Z,36.03
2023-05-21T04:45:14.077Z,35.78
2023-05-21T04:47:46.128Z,39.08
2023-05-21T04:50:13.106Z,38.47
2023-05-21T04:52:40.348Z,39.95
2023-05-21T04:55:08.314Z,36.60
2023-05-21T04:57:36.104Z,36.42
2023-05-21T05:00:07.415Z,38.50
2023-05-21T05:02:40.261Z,40.30
2023-05-21T05:05:07.288Z,36.15
2023-05-21T05:07:34.231Z,34.88
2023-05-21T05:10:01.232Z,36.13
2023-05-21T05:12:28.352Z,37.83
2023-05-21T05:14:55.265Z,34.67
2023-05-21T05:17:24.678Z,37.05
2023-05-21T05:19:51.557Z,35.67
2023-05-21T05:22:18.484Z,37.78
2023-05-21T05:24:46.641Z,37.40
2023-05-21T05:27:14.213Z,36.30
2023-05-21T05:29:41.144Z,35.17
2023-05-21T05:32:08.219Z,37.10
2023-05-21T05:34:35.042Z,33.20
2023-05-21T05:37:03.030Z,35.75
2023-05-21T05:39:31.251Z,32.88
2023-05-21T05:41:58.214Z,30.85
2023-05-21T05:44:26.264Z,33.00
2023-05-21T05:46:54.156Z,30.83
2023-05-21T05:49:21.128Z,30.55
2023-05-21T05:51:48.051Z,32.35
2023-05-21T05:54:15.115Z,30.90
2023-05-21T05:56:42.079Z,31.63
2023-05-21T05:59:09.179Z,31.15
2023-05-21T06:01:38.446Z,29.75
2023-05-21T06:04:06.263Z,29.98
2023-05-21T06:06:34.890Z,28.45
2023-05-21T06:09:01.938Z,29.10
2023-05-21T06:11:29.201Z,28.80
2023-05-21T06:13:56.819Z,31.17
2023-05-21T06:16:23.775Z,29.95
2023-05-21T06:18:51.336Z,27.48
2023-05-21T06:21:18.356Z,29.20
2023-05-21T06:23:45.659Z,28.50
2023-05-21T06:26:12.468Z,25.52
2023-05-21T06:28:40.338Z,27.58
2023-05-21T06:31:12.151Z,24.30
2023-05-21T06:33:39.378Z,25.33
2023-05-21T06:36:09.021Z,25.30
2023-05-21T06:38:36.372Z,32.45
2023-05-21T06:41:04.247Z,25.27
2023-05-21T06:43:45.584Z,26.48
2023-05-21T06:46:31.406Z,25.63
2023-05-21T06:48:58.335Z,24.77
2023-05-21T06:51:25.399Z,23.95
2023-05-21T06:53:53.056Z,26.48
2023-05-21T06:56:19.904Z,26.27
2023-05-21T06:58:46.854Z,24.35
2023-05-21T07:01:13.850Z,25.98
2023-05-21T07:03:40.893Z,20.77
2023-05-21T07:06:09.102Z,15.57
2023-05-21T07:08:36.471Z,17.20
2023-05-21T07:11:03.757Z,17.70
2023-05-21T07:13:31.166Z,16.35
2023-05-21T07:15:59.607Z,14.70
2023-05-21T07:18:27.754Z,14.77
2023-05-21T07:20:54.982Z,13.98
2023-05-21T07:23:22.008Z,14.50
2023-05-21T07:25:48.833Z,15.90
2023-05-21T07:28:17.687Z,14.13
2023-05-21T07:30:45.368Z,12.85
2023-05-21T07:33:16.483Z,11.88
2023-05-21T07:35:44.941Z,12.10
2023-05-21T07:38:11.904Z,12.43
2023-05-21T07:40:39.247Z,12.10
2023-05-21T07:43:06.742Z,14.15
2023-05-21T07:45:35.376Z,14.38
2023-05-21T07:48:03.026Z,12.48
2023-05-21T07:50:32.589Z,11.73
2023-05-21T07:53:00.120Z,13.18
2023-05-21T07:55:27.275Z,9.82
2023-05-21T07:57:54.638Z,10.85
2023-05-21T08:00:26.743Z,11.25
2023-05-21T08:02:57.323Z,11.90
2023-05-21T08:05:25.887Z,13.18
2023-05-21T08:07:53.188Z,11.25
2023-05-21T08:10:21.242Z,9.30
2023-05-21T08:12:50.217Z,12.52
2023-05-21T08:15:17.984Z,11.32
2023-05-21T08:17:47.099Z,10.95
2023-05-21T08:20:15.349Z,12.02
2023-05-21T08:22:44.406Z,15.52
2023-05-21T08:25:11.767Z,9.52
2023-05-21T08:27:38.870Z,13.35
2023-05-21T08:30:07.248Z,10.00
2023-05-21T08:32:35.226Z,11.93
2023-05-21T08:35:02.476Z,11.20
2023-05-21T08:40:36.663Z,10.75
2023-05-21T08:43:03.916Z,12.45
2023-05-21T08:45:59.167Z,11.90
2023-05-21T08:48:31.785Z,13.02
2023-05-21T08:51:00.370Z,10.40
2023-05-21T08:53:33.662Z,9.48
2023-05-21T08:56:01.888Z,10.55
2023-05-21T08:59:02.540Z,10.43
2023-05-21T09:01:34.713Z,10.25
2023-05-21T09:04:21.155Z,8.10
2023-05-21T09:06:52.106Z,10.27
2023-05-21T09:09:34.770Z,11.68
2023-05-21T09:12:02.506Z,10.43
2023-05-21T09:14:30.921Z,9.63
2023-05-21T09:17:20.204Z,9.75
2023-05-21T09:20:15.976Z,11.10
2023-05-21T09:22:50.856Z,9.40
2023-05-21T09:25:22.410Z,9.57
2023-05-21T09:27:49.871Z,8.73
2023-05-21T09:30:34.881Z,10.48
2023-05-21T09:33:03.647Z,10.77
2023-05-21T09:35:34.514Z,9.13
2023-05-21T09:38:09.923Z,10.13
2023-05-21T09:40:48.350Z,9.52
2023-05-21T09:43:17.366Z,9.07
2023-05-21T09:45:59.691Z,9.77
2023-05-21T09:48:42.907Z,10.73
2023-05-21T09:51:19.003Z,25.27
2023-05-21T09:54:01.660Z,11.77
2023-05-21T09:56:30.976Z,13.63
2023-05-21T09:59:00.610Z,11.38
2023-05-21T10:01:28.841Z,10.25
2023-05-21T10:03:58.388Z,8.43
2023-05-21T10:06:28.638Z,10.02
2023-05-21T10:08:57.546Z,9.55
2023-05-21T10:11:31.443Z,10.05
2023-05-21T10:14:07.254Z,8.80
2023-05-21T10:16:36.463Z,10.00
2023-05-21T10:19:05.353Z,10.25
2023-05-21T10:21:33.501Z,10.65
2023-05-21T10:24:02.691Z,9.38
2023-05-21T10:26:30.816Z,12.77
2023-05-21T10:29:01.322Z,13.38
2023-05-21T10:31:29.849Z,12.98
2023-05-21T10:33:56.910Z,13.70
2023-05-21T10:36:27.478Z,14.68
2023-05-21T10:38:55.605Z,13.43
2023-05-21T10:41:24.456Z,13.77
2023-05-21T10:44:10.346Z,14.80
2023-05-21T10:46:57.499Z,14.63
2023-05-21T10:49:59.447Z,11.38
2023-05-21T10:55:36.207Z,11.90
2023-05-21T10:59:05.255Z,10.85
2023-05-21T11:01:36.485Z,10.13
2023-05-21T11:04:06.987Z,10.88
2023-05-21T11:06:33.932Z,11.52
2023-05-21T11:09:11.959Z,10.43
2023-05-21T11:11:48.688Z,11.77
2023-05-21T11:14:40.591Z,13.98
2023-05-21T11:17:07.405Z,9.35
2023-05-21T11:19:37.283Z,11.13
2023-05-21T11:22:28.168Z,11.75
2023-05-21T11:24:56.353Z,10.73
2023-05-21T11:27:40.576Z,8.60
2023-05-21T11:30:09.925Z,11.95
2023-05-21T11:32:41.242Z,9.05
2023-05-21T11:35:08.900Z,7.47
2023-05-21T11:37:37.863Z,10.40
2023-05-21T11:40:23.892Z,7.47
2023-05-21T11:42:52.867Z,7.53
2023-05-21T11:45:21.365Z,12.85
2023-05-21T11:47:50.117Z,9.25
2023-05-21T11:50:18.010Z,5.82
2023-05-21T11:52:45.614Z,7.90
2023-05-21T11:55:13.406Z,6.65
2023-05-21T11:57:43.055Z,7.03
2023-05-21T12:00:17.176Z,8.93
2023-05-21T12:02:53.460Z,7.50
2023-05-21T12:05:22.014Z,8.20
2023-05-21T12:07:50.794Z,8.10
2023-05-21T12:10:22.164Z,8.15
2023-05-21T12:12:56.237Z,7.18
2023-05-21T12:15:26.597Z,6.65
2023-05-21T12:17:55.727Z,7.22
2023-05-21T12:20:23.860Z,7.00
2023-05-21T12:22:51.660Z,7.95
2023-05-21T12:25:22.364Z,9.70
2023-05-21T12:27:59.145Z,7.43
2023-05-21T12:30:34.502Z,7.80
2023-05-21T12:33:05.404Z,9.07
2023-05-21T12:35:33.231Z,9.00
2023-05-21T12:38:03.686Z,8.70
2023-05-21T12:40:40.225Z,6.95
2023-05-21T12:43:07.997Z,8.52
2023-05-21T12:45:36.764Z,8.20
2023-05-21T12:48:04.395Z,6.93
2023-05-21T12:50:33.046Z,10.35
2023-05-21T12:53:00.048Z,8.15
2023-05-21T12:55:27.006Z,6.88
2023-05-21T12:58:03.752Z,8.23
2023-05-21T13:00:30.641Z,7.47
2023-05-21T13:03:00.114Z,6.40
2023-05-21T13:05:27.270Z,7.63
2023-05-21T13:07:54.263Z,7.28
2023-05-21T13:10:21.900Z,6.15
2023-05-21T13:12:48.827Z,8.85
2023-05-21T13:15:15.885Z,8.13
2023-05-21T13:17:43.028Z,7.53
2023-05-21T13:20:15.272Z,8.40
2023-05-21T13:22:46.946Z,10.20
2023-05-21T13:27:46.993Z,9.20
2023-05-21T13:30:14.093Z,8.73
2023-05-21T13:32:43.427Z,9.13
2023-05-21T13:35:12.129Z,14.18
2023-05-21T13:37:40.937Z,6.70
2023-05-21T13:40:16.261Z,7.40
2023-05-21T13:42:48.301Z,7.60
2023-05-21T13:45:21.305Z,7.05
2023-05-21T13:47:48.612Z,7.65
2023-05-21T13:50:15.765Z,7.80
2023-05-21T13:52:43.108Z,6.10
2023-05-21T13:55:11.347Z,6.70
2023-05-21T13:57:38.560Z,6.45
2023-05-21T14:00:14.247Z,7.43
2023-05-21T14:02:44.242Z,6.47
2023-05-21T14:05:12.391Z,7.47
2023-05-21T14:07:40.156Z,8.60
2023-05-21T14:10:07.911Z,6.43
2023-05-21T14:12:34.825Z,5.85
2023-05-21T14:15:02.013Z,5.88
2023-05-21T14:17:29.138Z,9.07
2023-05-21T14:19:56.053Z,6.40
2023-05-21T14:22:23.132Z,6.63
2023-05-21T14:24:50.194Z,7.25
2023-05-21T14:27:17.388Z,6.10
2023-05-21T14:29:44.292Z,10.13
2023-05-21T14:32:11.188Z,8.63
2023-05-21T14:34:39.270Z,6.78
2023-05-21T14:37:06.375Z,7.20
2023-05-21T14:39:33.129Z,6.63
2023-05-21T14:41:59.995Z,5.05
2023-05-21T14:44:26.973Z,7.43
2023-05-21T14:46:54.577Z,8.10
2023-05-21T14:49:21.747Z,5.72
2023-05-21T14:51:49.054Z,6.43
2023-05-21T14:54:15.830Z,11.48
2023-05-21T14:56:42.700Z,6.75
2023-05-21T14:59:11.406Z,8.38
2023-05-21T15:01:39.026Z,7.40
2023-05-21T15:04:07.558Z,7.32
2023-05-21T15:06:34.817Z,8.60
2023-05-21T15:09:02.014Z,5.50
2023-05-21T15:11:28.904Z,7.28
2023-05-21T15:13:55.811Z,7.18
2023-05-21T15:16:22.764Z,6.97
2023-05-21T15:18:50.290Z,6.55
2023-05-21T15:21:17.296Z,7.47
2023-05-21T15:23:44.328Z,7.97
2023-05-21T15:26:14.057Z,6.72
2023-05-21T15:28:41.019Z,6.38
2023-05-21T15:31:08.027Z,7.45
2023-05-21T15:33:34.845Z,8.27
2023-05-21T15:36:04.069Z,8.43
2023-05-21T15:38:31.269Z,8.25
2023-05-21T15:40:58.263Z,6.40
2023-05-21T15:43:25.442Z,8.25
2023-05-21T15:45:52.435Z,8.85
2023-05-21T15:48:22.574Z,8.45
2023-05-21T15:50:50.087Z,7.63
2023-05-21T15:53:17.157Z,6.65
2023-05-21T15:55:44.870Z,9.82
2023-05-21T15:58:12.012Z,8.57
2023-05-21T16:00:39.281Z,7.10
2023-05-21T16:03:06.296Z,6.30
2023-05-21T16:05:33.069Z,6.68
2023-05-21T16:08:00.508Z,7.22
2023-05-21T16:10:27.343Z,6.63
2023-05-21T16:12:54.129Z,7.30
2023-05-21T16:15:48.319Z,7.90
2023-05-21T16:18:16.203Z,6.88
2023-05-21T16:20:43.704Z,7.40
2023-05-21T16:23:12.300Z,7.78
2023-05-21T16:25:39.581Z,7.07
2023-05-21T16:28:06.693Z,7.68
2023-05-21T16:30:33.480Z,8.00
2023-05-21T16:33:00.771Z,7.63
2023-05-21T16:35:27.621Z,6.57
2023-05-21T16:37:55.821Z,7.57
2023-05-21T16:40:22.721Z,8.35
2023-05-21T16:42:49.748Z,7.28
2023-05-21T16:45:20.751Z,8.80
2023-05-21T16:47:48.845Z,7.40
2023-05-21T16:50:16.444Z,8.43
2023-05-21T16:52:43.404Z,8.52
2023-05-21T16:55:11.414Z,7.28
2023-05-21T16:57:38.630Z,7.30
2023-05-21T17:00:07.728Z,7.20
2023-05-21T17:02:35.257Z,7.72
2023-05-21T17:05:02.157Z,6.70
2023-05-21T17:07:29.240Z,9.05
2023-05-21T17:09:56.098Z,7.85
2023-05-21T17:12:23.749Z,8.60
2023-05-21T17:14:52.109Z,6.82
2023-05-21T17:17:19.181Z,7.40
2023-05-21T17:19:46.222Z,8.45
2023-05-21T17:22:14.926Z,10.68
2023-05-21T17:24:41.914Z,8.27
2023-05-21T17:27:08.954Z,12.70
2023-05-21T17:29:35.852Z,10.00
2023-05-21T17:32:03.256Z,9.60
2023-05-21T17:34:33.137Z,7.97
2023-05-21T17:37:03.138Z,9.45
2023-05-21T17:39:30.913Z,8.63
2023-05-21T17:41:57.987Z,8.85
2023-05-21T17:44:24.966Z,9.82
2023-05-21T17:46:52.404Z,7.35
2023-05-21T17:49:19.459Z,8.32
2023-05-21T17:51:48.064Z,7.90
2023-05-21T17:54:15.960Z,10.20
2023-05-21T17:56:44.204Z,7.88
2023-05-21T17:59:14.561Z,9.30
2023-05-21T18:01:41.534Z,7.63
2023-05-21T18:04:12.841Z,9.55
2023-05-21T18:06:40.439Z,9.82
2023-05-21T18:09:08.270Z,8.25
2023-05-21T18:11:35.223Z,7.65
2023-05-21T18:14:03.983Z,8.07
2023-05-21T18:16:31.817Z,8.73
2023-05-21T18:18:58.988Z,6.53
2023-05-21T18:21:26.344Z,8.30
2023-05-21T18:23:53.420Z,8.55
2023-05-21T18:26:20.985Z,7.85
2023-05-21T18:28:49.050Z,10.82
2023-05-21T18:31:17.282Z,8.68
2023-05-21T18:33:44.803Z,9.00
2023-05-21T18:36:11.771Z,9.43
2023-05-21T18:38:39.248Z,8.40
2023-05-21T18:41:07.621Z,10.57
2023-05-21T18:43:34.469Z,8.00
2023-05-21T18:46:01.328Z,10.20
2023-05-21T18:48:30.008Z,8.15
2023-05-21T18:50:57.036Z,7.78
2023-05-21T18:53:23.947Z,7.40
2023-05-21T18:55:50.908Z,8.30
2023-05-21T18:58:17.978Z,10.88
2023-05-21T19:00:44.916Z,9.85
2023-05-21T19:03:12.750Z,8.55
2023-05-21T19:05:39.593Z,9.32
2023-05-21T19:08:06.531Z,6.63
2023-05-21T19:10:33.445Z,9.55
2023-05-21T19:13:00.523Z,8.75
2023-05-21T19:15:27.558Z,11.05
2023-05-21T19:17:54.379Z,10.40
2023-05-21T19:20:24.730Z,9.60
2023-05-21T19:22:52.305Z,8.55
2023-05-21T19:25:19.299Z,10.68
2023-05-21T19:27:46.292Z,8.50
2023-05-21T19:30:13.622Z,9.82
2023-05-21T19:32:40.497Z,8.32
2023-05-21T19:35:08.261Z,7.63
2023-05-21T19:37:35.195Z,9.70
2023-05-21T19:40:02.017Z,12.13
2023-05-21T19:42:29.073Z,7.47
2023-05-21T19:44:55.921Z,9.40
2023-05-21T19:47:22.764Z,7.95
2023-05-21T19:49:49.569Z,7.47
2023-05-21T19:52:16.549Z,10.85
2023-05-21T19:54:43.602Z,8.52
2023-05-21T19:57:12.466Z,8.38
2023-05-21T19:59:39.558Z,8.48
2023-05-21T20:02:07.004Z,7.55
2023-05-21T20:04:33.910Z,8.50
2023-05-21T20:07:02.928Z,8.00
2023-05-21T20:09:31.480Z,8.00
2023-05-21T20:11:58.678Z,8.52
2023-05-21T20:14:25.624Z,6.50
2023-05-21T20:16:53.624Z,8.73
2023-05-21T20:19:22.798Z,9.20
2023-05-21T20:21:49.865Z,7.50
2023-05-21T20:24:17.056Z,7.40
2023-05-21T20:26:45.123Z,7.40
2023-05-21T20:29:12.196Z,7.15
2023-05-21T20:31:39.160Z,8.73
2023-05-21T20:34:07.909Z,8.73
2023-05-21T20:36:35.821Z,7.68
2023-05-21T20:39:03.077Z,6.75
2023-05-21T20:41:36.160Z,7.65
2023-05-21T20:44:05.172Z,7.95
2023-05-21T20:46:38.537Z,9.55
2023-05-21T20:49:06.140Z,8.95
2023-05-21T20:51:33.599Z,9.02
2023-05-21T20:54:00.444Z,11.27
2023-05-21T20:56:40.720Z,8.80
2023-05-21T20:59:09.953Z,10.13
2023-05-21T21:01:38.599Z,12.05
2023-05-21T21:04:05.799Z,9.60
2023-05-21T21:06:34.030Z,9.93
2023-05-21T21:09:00.883Z,9.90
2023-05-21T21:11:27.758Z,11.35
2023-05-21T21:13:54.639Z,9.23
2023-05-21T21:16:21.630Z,12.65
2023-05-21T21:18:48.659Z,11.45
2023-05-21T21:21:15.596Z,10.60
2023-05-21T21:23:42.553Z,11.38
2023-05-21T21:26:09.334Z,10.60
2023-05-21T21:28:36.243Z,10.43
2023-05-21T21:31:03.085Z,9.57
2023-05-21T21:33:29.935Z,9.05
2023-05-21T21:35:56.730Z,8.88
2023-05-21T21:38:24.066Z,10.57
2023-05-21T21:40:50.974Z,8.27
2023-05-21T21:43:17.800Z,12.68
2023-05-21T21:45:44.966Z,10.05
2023-05-21T21:48:11.779Z,10.38
2023-05-21T21:50:38.801Z,9.30
2023-05-21T21:53:06.045Z,9.25
2023-05-21T21:55:33.370Z,12.73
2023-05-21T21:58:00.418Z,10.95
2023-05-21T22:00:27.193Z,10.90
2023-05-21T22:02:54.159Z,9.00
2023-05-21T22:05:21.295Z,9.88
2023-05-21T22:07:48.200Z,10.70
2023-05-21T22:10:16.383Z,12.02
2023-05-21T22:12:44.424Z,10.98
2023-05-21T22:15:18.049Z,9.88
2023-05-21T22:17:48.361Z,11.60
2023-05-21T22:20:17.550Z,11.18
2023-05-21T22:22:46.170Z,11.85
2023-05-21T22:25:13.372Z,12.07
2023-05-21T22:27:40.563Z,11.25
2023-05-21T22:30:08.046Z,12.00
2023-05-21T22:32:35.089Z,10.25
2023-05-21T22:35:02.594Z,11.52
2023-05-21T22:37:29.688Z,10.73
2023-05-21T22:39:57.552Z,12.45
2023-05-21T22:42:24.628Z,11.85
2023-05-21T22:44:52.212Z,11.25
2023-05-21T22:47:23.086Z,10.63
2023-05-21T22:49:53.486Z,10.68
2023-05-21T22:52:24.029Z,11.30
2023-05-21T22:54:54.751Z,12.93
2023-05-21T22:57:21.818Z,10.77
2023-05-21T22:59:48.716Z,11.88
2023-05-21T23:02:16.535Z,12.05
2023-05-21T23:04:44.573Z,11.93
2023-05-21T23:07:12.561Z,10.90
2023-05-21T23:09:41.364Z,11.23
2023-05-21T23:12:10.258Z,11.70
2023-05-21T23:14:37.012Z,11.13
2023-05-21T23:17:04.527Z,11.48
2023-05-21T23:19:32.952Z,9.73
2023-05-21T23:22:00.620Z,10.60
2023-05-21T23:24:29.502Z,12.68
2023-05-21T23:27:01.846Z,10.98
2023-05-21T23:29:30.063Z,11.95
2023-05-21T23:31:57.247Z,13.82
2023-05-21T23:34:24.871Z,11.43
2023-05-21T23:36:51.904Z,11.70
2023-05-21T23:39:18.814Z,10.15
2023-05-21T23:41:45.729Z,10.70
2023-05-21T23:44:12.954Z,10.82
2023-05-21T23:46:39.784Z,12.30
2023-05-21T23:49:06.591Z,11.32
2023-05-21T23:51:33.493Z,9.60
2023-05-21T23:54:01.000Z,10.07
2023-05-21T23:56:27.816Z,10.63
2023-05-21T23:58:54.550Z,9.77
